Willernie, Minnesota
Current Conditions -  °F | °C
As of 8:31 AM on Monday 26 Jan 2015 (Local Time) from K21D Reporting Station
Overcast Overcast  
Wind Chill: 24°   Ceiling: 800
Heat Index: 30°   Visibility: 10mi
Dew Point: 28°   Wind: 6mph
Humidity: 93%   Direction: 190°S
Pressure: 29.71"   Gusts: NA
Location:  45.05°N, 92.96°W
Report Text: K21D 261431Z AUTO 19005KT 10SM OVC008 M01/M02 A2971 RMK AO2
Loading
Personal Weather Stations






























Interactive Weather Map New forecast layout! Learn more

10-Day Weather Forecast

Advertisements
Track Severe Weather on mobile